Time;durP1;ratioP1;P1;durP2;ratioP2;P2;SDS_P1;SDS_P2;PMS_P1;PMS_P2;Temp;Humidity;BMP_temperature;BMP_pressure;BME280_temperature;BME280_humidity;BME280_pressure;Samples;Min_cycle;Max_cycle;Signal;HPM_P1;HPM_P2
2021/06/06 00:01:25;;;;;;;50.78;27.25;;;19.00;99.90;;;;;;5009969;28;20137;-68
2021/06/06 00:03:55;;;;;;;49.95;28.45;;;18.80;99.90;;;;;;5012057;28;20060;-69
2021/06/06 00:06:28;;;;;;;54.38;28.77;;;18.80;99.90;;;;;;5007372;28;20046;-68
2021/06/06 00:08:56;;;;;;;50.00;28.23;;;18.90;99.90;;;;;;5010144;28;20501;-68
2021/06/06 00:11:35;;;;;;;53.17;28.73;;;18.90;99.90;;;;;;5022275;28;20053;-68
2021/06/06 00:14:05;;;;;;;57.63;30.75;;;18.90;99.90;;;;;;5013540;28;20057;-69
2021/06/06 00:16:35;;;;;;;57.55;31.35;;;18.90;99.90;;;;;;5008522;28;20057;-68
2021/06/06 00:19:04;;;;;;;63.78;32.00;;;18.90;99.90;;;;;;5011205;28;20069;-69
2021/06/06 00:21:32;;;;;;;59.17;31.05;;;18.80;99.90;;;;;;5012796;28;20116;-68
2021/06/06 00:23:59;;;;;;;55.42;30.05;;;18.80;99.90;;;;;;5012553;28;20077;-71
2021/06/06 00:26:26;;;;;;;60.42;32.42;;;18.70;99.90;;;;;;5011174;28;20057;-71
2021/06/06 00:28:53;;;;;;;55.35;30.83;;;18.70;99.90;;;;;;5010004;28;20133;-70
2021/06/06 00:31:21;;;;;;;59.20;31.55;;;18.70;99.90;;;;;;5012692;28;20092;-68
2021/06/06 00:33:49;;;;;;;59.72;31.77;;;18.70;99.90;;;;;;5005926;28;20046;-68
2021/06/06 00:36:18;;;;;;;58.97;31.50;;;18.80;99.90;;;;;;5012152;28;20132;-68
2021/06/06 00:38:44;;;;;;;56.00;29.85;;;18.80;99.90;;;;;;5012481;28;20560;-69
2021/06/06 00:41:13;;;;;;;58.67;32.80;;;18.90;99.90;;;;;;5005303;28;20081;-68
2021/06/06 00:43:40;;;;;;;61.72;31.52;;;18.90;99.90;;;;;;5006813;28;20050;-68
2021/06/06 00:46:13;;;;;;;56.63;32.22;;;18.90;99.90;;;;;;5013284;28;20054;-68
2021/06/06 00:48:40;;;;;;;56.72;33.22;;;18.80;99.90;;;;;;5007715;28;20057;-68
2021/06/06 00:51:13;;;;;;;63.63;33.55;;;18.70;99.90;;;;;;5011055;28;20085;-68
2021/06/06 00:53:46;;;;;;;59.25;33.33;;;18.80;99.90;;;;;;5012635;28;20050;-68
2021/06/06 00:56:18;;;;;;;59.72;32.97;;;18.80;99.90;;;;;;5007567;28;20081;-67
2021/06/06 00:58:48;;;;;;;62.88;34.90;;;18.80;99.90;;;;;;5007661;28;20042;-68
2021/06/06 01:01:17;;;;;;;57.60;33.00;;;18.80;99.90;;;;;;5006911;28;20532;-68
2021/06/06 01:03:49;;;;;;;63.42;34.67;;;18.90;99.90;;;;;;5010164;28;20045;-69
2021/06/06 01:06:22;;;;;;;67.35;35.90;;;18.90;99.90;;;;;;5015281;28;20046;-68
2021/06/06 01:08:49;;;;;;;70.45;36.55;;;18.90;99.90;;;;;;5012393;28;20046;-69
2021/06/06 01:11:25;;;;;;;66.75;36.33;;;18.80;99.90;;;;;;5011461;28;20143;-68
2021/06/06 01:13:56;;;;;;;69.95;38.17;;;18.60;99.90;;;;;;5019819;28;20107;-68
2021/06/06 01:16:40;;;;;;;73.90;38.88;;;18.40;99.90;;;;;;5011964;28;20049;-68
2021/06/06 01:19:37;;;;;;;76.93;39.33;;;18.20;99.90;;;;;;5024122;28;20458;-68
2021/06/06 01:22:27;;;;;;;80.90;41.63;;;18.00;99.90;;;;;;5011198;28;20065;-68
2021/06/06 01:24:59;;;;;;;80.35;41.38;;;17.80;99.90;;;;;;5006669;28;20078;-68
2021/06/06 01:27:29;;;;;;;88.15;42.55;;;17.40;99.90;;;;;;5007496;28;20120;-68
2021/06/06 01:29:55;;;;;;;83.15;42.88;;;17.30;99.90;;;;;;5005341;28;20477;-69
2021/06/06 01:32:46;;;;;;;86.82;43.15;;;17.20;99.90;;;;;;5009242;28;20149;-68
2021/06/06 01:36:07;;;;;;;88.90;43.72;;;17.20;99.90;;;;;;5008805;28;20096;-69
2021/06/06 01:38:41;;;;;;;89.85;44.15;;;17.20;99.90;;;;;;4954861;28;20532;-69
2021/06/06 01:41:16;;;;;;;88.50;44.95;;;17.30;99.90;;;;;;5002668;28;20137;-69
2021/06/06 01:43:50;;;;;;;89.22;42.38;;;17.30;99.90;;;;;;5008508;28;20089;-68
2021/06/06 01:46:26;;;;;;;85.50;43.85;;;17.30;99.90;;;;;;5014519;28;20534;-68
2021/06/06 01:48:55;;;;;;;86.68;44.20;;;17.30;99.90;;;;;;5008504;28;20038;-68
2021/06/06 01:51:26;;;;;;;89.35;44.78;;;17.30;99.90;;;;;;5011086;28;20085;-70
2021/06/06 01:53:54;;;;;;;95.57;45.53;;;17.40;99.90;;;;;;5011368;28;20050;-69
2021/06/06 01:56:33;;;;;;;89.65;44.95;;;17.50;99.90;;;;;;5009704;28;20824;-69
2021/06/06 01:59:04;;;;;;;92.93;45.00;;;17.50;99.90;;;;;;5008227;28;20160;-69
2021/06/06 02:01:32;;;;;;;87.80;44.20;;;17.50;99.90;;;;;;5007678;28;20133;-69
2021/06/06 02:04:01;;;;;;;88.43;46.17;;;17.50;99.90;;;;;;5007418;28;20050;-69
2021/06/06 02:06:40;;;;;;;86.13;44.78;;;17.50;99.90;;;;;;5008068;28;20200;-69
2021/06/06 02:09:09;;;;;;;91.65;45.08;;;17.50;99.90;;;;;;5013410;28;20514;-69
2021/06/06 02:11:51;;;;;;;95.57;45.55;;;17.30;99.90;;;;;;5009643;28;20068;-69
2021/06/06 02:14:23;;;;;;;89.53;47.17;;;17.30;99.90;;;;;;5007302;28;20123;-68
2021/06/06 02:16:54;;;;;;;90.82;45.08;;;17.20;99.90;;;;;;5009249;28;20169;-68
2021/06/06 02:19:25;;;;;;;93.18;45.70;;;17.30;99.90;;;;;;5010203;28;20053;-68
2021/06/06 02:21:53;;;;;;;93.78;45.90;;;17.40;99.90;;;;;;5010011;28;20128;-68
2021/06/06 02:24:20;;;;;;;88.65;44.78;;;17.40;99.90;;;;;;5007412;28;20481;-69
2021/06/06 02:26:58;;;;;;;89.30;44.97;;;17.40;99.90;;;;;;5006911;28;20038;-69
2021/06/06 02:29:30;;;;;;;90.40;46.22;;;17.30;99.90;;;;;;5010123;28;20042;-69
2021/06/06 02:32:11;;;;;;;89.93;45.65;;;17.30;99.90;;;;;;5008953;28;20136;-68
2021/06/06 02:34:53;;;;;;;96.05;45.33;;;17.30;99.90;;;;;;5006545;28;20140;-68
2021/06/06 02:37:32;;;;;;;90.93;44.35;;;17.30;99.90;;;;;;5005818;28;20551;-69
2021/06/06 02:40:05;;;;;;;95.43;45.95;;;17.40;99.90;;;;;;5009420;28;20136;-69
2021/06/06 02:42:41;;;;;;;89.10;44.63;;;17.40;99.90;;;;;;5008358;28;20042;-69
2021/06/06 02:45:13;;;;;;;93.45;45.85;;;17.40;99.90;;;;;;5008893;28;20405;-69
2021/06/06 02:47:42;;;;;;;88.28;45.88;;;17.40;99.90;;;;;;5001176;28;20442;-69
2021/06/06 02:50:23;;;;;;;94.80;47.33;;;17.30;99.90;;;;;;5009837;28;20127;-69
2021/06/06 02:53:15;;;;;;;102.00;46.65;;;17.30;99.90;;;;;;5008721;28;20084;-68
2021/06/06 02:55:49;;;;;;;97.57;47.83;;;17.20;99.90;;;;;;5002574;28;20089;-69
2021/06/06 02:58:30;;;;;;;97.97;47.05;;;17.20;99.90;;;;;;5010262;28;20457;-68
2021/06/06 03:01:06;;;;;;;97.05;48.33;;;17.10;99.90;;;;;;5008489;28;20058;-68
2021/06/06 03:03:36;;;;;;;97.38;46.55;;;17.10;99.90;;;;;;5004418;28;20489;-69
2021/06/06 03:06:08;;;;;;;103.15;47.42;;;17.00;99.90;;;;;;5009046;28;20141;-69
2021/06/06 03:08:35;;;;;;;100.80;48.08;;;17.00;99.90;;;;;;5007081;28;20129;-69
2021/06/06 03:11:06;;;;;;;94.15;47.78;;;17.00;99.90;;;;;;5011039;28;20136;-69
2021/06/06 03:13:38;;;;;;;97.80;46.70;;;16.90;99.90;;;;;;5016459;28;20077;-69
2021/06/06 03:16:05;;;;;;;94.10;48.65;;;16.80;99.90;;;;;;5019951;28;20132;-68
2021/06/06 03:18:37;;;;;;;94.20;47.50;;;16.80;99.90;;;;;;5008960;28;20748;-69
2021/06/06 03:21:44;;;;;;;95.55;48.13;;;16.80;99.90;;;;;;5009632;28;20500;-68
2021/06/06 03:24:20;;;;;;;95.32;47.33;;;16.70;99.90;;;;;;5005759;28;20129;-69
2021/06/06 03:26:50;;;;;;;99.82;49.50;;;16.80;99.90;;;;;;5006639;28;20505;-68
2021/06/06 03:29:22;;;;;;;97.57;47.40;;;16.80;99.90;;;;;;5005150;28;20077;-69
2021/06/06 03:31:59;;;;;;;95.43;47.17;;;16.70;99.90;;;;;;5006799;28;20138;-69
2021/06/06 03:34:26;;;;;;;92.65;47.20;;;16.70;99.90;;;;;;5005544;28;20108;-69
2021/06/06 03:36:53;;;;;;;101.68;48.78;;;16.60;99.90;;;;;;5006253;28;20078;-68
2021/06/06 03:39:27;;;;;;;97.47;48.50;;;16.60;99.90;;;;;;5010195;28;20054;-68
2021/06/06 03:41:56;;;;;;;101.53;48.25;;;16.60;99.90;;;;;;5008019;28;20481;-68
2021/06/06 03:44:24;;;;;;;97.93;49.73;;;16.50;99.90;;;;;;5003488;28;20056;-69
2021/06/06 03:46:53;;;;;;;105.13;50.35;;;16.50;99.90;;;;;;5010886;28;20125;-68
2021/06/06 03:49:20;;;;;;;102.78;50.00;;;16.40;99.90;;;;;;5007162;28;20104;-68
2021/06/06 03:51:47;;;;;;;93.88;49.28;;;16.40;99.90;;;;;;5008868;28;20073;-68
2021/06/06 03:54:16;;;;;;;104.13;49.30;;;16.30;99.90;;;;;;5006162;28;20496;-69
2021/06/06 03:56:44;;;;;;;104.20;49.15;;;16.40;99.90;;;;;;5006786;28;20048;-68
2021/06/06 03:59:12;;;;;;;101.50;51.05;;;16.30;99.90;;;;;;5008897;28;20480;-68
2021/06/06 04:01:40;;;;;;;96.68;48.75;;;16.20;99.90;;;;;;5012059;28;20058;-68
2021/06/06 04:04:07;;;;;;;98.82;49.80;;;16.30;99.90;;;;;;5004668;28;20054;-68
2021/06/06 04:06:34;;;;;;;91.03;49.17;;;16.30;99.90;;;;;;5008199;28;20655;-68
2021/06/06 04:09:02;;;;;;;99.93;49.45;;;16.30;99.90;;;;;;5007678;28;20548;-68
2021/06/06 04:11:29;;;;;;;93.32;48.20;;;16.20;99.90;;;;;;5007872;28;20058;-68
2021/06/06 04:13:56;;;;;;;95.30;48.83;;;16.30;99.90;;;;;;5020005;28;20132;-68
2021/06/06 04:16:22;;;;;;;89.50;48.10;;;16.30;99.90;;;;;;5008818;28;20077;-68
2021/06/06 04:18:49;;;;;;;92.47;47.38;;;16.40;99.90;;;;;;5010237;28;20061;-68
2021/06/06 04:21:23;;;;;;;93.72;48.58;;;16.30;99.90;;;;;;5010115;28;20052;-68
2021/06/06 04:23:50;;;;;;;80.68;46.15;;;16.50;99.90;;;;;;5008624;28;20108;-68
2021/06/06 04:26:17;;;;;;;91.00;47.88;;;16.40;99.90;;;;;;5008678;28;20077;-67
2021/06/06 04:28:44;;;;;;;90.32;47.70;;;16.50;99.90;;;;;;5001965;28;20117;-67
2021/06/06 04:31:12;;;;;;;94.15;48.97;;;16.40;99.90;;;;;;5012777;28;20522;-67
2021/06/06 04:33:39;;;;;;;90.78;47.58;;;16.40;99.90;;;;;;5011555;28;20128;-67
2021/06/06 04:36:07;;;;;;;87.43;46.50;;;16.30;99.90;;;;;;5012938;28;20561;-67
2021/06/06 04:38:34;;;;;;;95.88;46.80;;;16.40;99.90;;;;;;5010843;28;20532;-68
2021/06/06 04:41:08;;;;;;;89.38;48.20;;;16.40;99.90;;;;;;5010390;28;20141;-67
2021/06/06 04:43:36;;;;;;;86.93;46.95;;;16.50;99.90;;;;;;5005936;28;20459;-68
2021/06/06 04:46:03;;;;;;;89.40;47.17;;;16.50;99.90;;;;;;5013257;28;20144;-68
2021/06/06 04:48:40;;;;;;;90.95;46.97;;;16.50;99.90;;;;;;5005714;28;20048;-68
2021/06/06 04:51:11;;;;;;;86.38;46.78;;;16.50;99.90;;;;;;5014155;28;20049;-68
2021/06/06 04:53:39;;;;;;;88.35;44.95;;;16.60;99.90;;;;;;5011805;28;20050;-68
2021/06/06 04:56:10;;;;;;;83.93;44.72;;;16.50;99.90;;;;;;5009928;28;20085;-68
2021/06/06 04:58:37;;;;;;;85.72;45.75;;;16.60;99.90;;;;;;5006174;28;20474;-69
2021/06/06 05:01:04;;;;;;;82.75;44.13;;;16.60;99.90;;;;;;5009879;28;20153;-68
2021/06/06 05:03:30;;;;;;;85.25;45.00;;;16.60;99.90;;;;;;5010682;28;20046;-68
2021/06/06 05:05:57;;;;;;;81.18;45.63;;;16.70;99.90;;;;;;5013713;28;20046;-69
2021/06/06 05:08:25;;;;;;;82.40;44.67;;;16.80;99.90;;;;;;5009701;28;20133;-69
2021/06/06 05:10:52;;;;;;;90.47;46.38;;;16.70;99.90;;;;;;5008381;28;20046;-69
2021/06/06 05:13:20;;;;;;;86.20;45.45;;;16.80;99.90;;;;;;5010864;28;20062;-69
2021/06/06 05:15:48;;;;;;;81.18;44.78;;;16.80;99.90;;;;;;5007968;28;20137;-68
2021/06/06 05:18:15;;;;;;;84.72;44.80;;;16.80;99.90;;;;;;5014300;28;20092;-68
2021/06/06 05:20:45;;;;;;;89.00;45.78;;;16.70;99.90;;;;;;5020034;28;20049;-68
2021/06/06 05:23:18;;;;;;;83.32;43.45;;;16.80;99.90;;;;;;5008008;28;20050;-68
2021/06/06 05:25:45;;;;;;;90.60;46.78;;;16.70;99.90;;;;;;4989459;28;20546;-68
2021/06/06 05:28:16;;;;;;;86.97;44.38;;;16.70;99.90;;;;;;5011509;28;20046;-69
2021/06/06 05:30:43;;;;;;;82.93;43.28;;;16.80;99.90;;;;;;5010272;28;20474;-69
2021/06/06 05:33:11;;;;;;;82.97;43.70;;;16.70;99.90;;;;;;5008335;28;20425;-69
2021/06/06 05:35:39;;;;;;;83.68;43.83;;;16.70;99.90;;;;;;5010489;28;20065;-67
2021/06/06 05:38:11;;;;;;;76.75;42.83;;;16.70;99.90;;;;;;5006624;28;20549;-67
2021/06/06 05:40:42;;;;;;;86.85;44.75;;;16.80;99.90;;;;;;5042238;28;20729;-67
2021/06/06 05:43:09;;;;;;;83.22;42.95;;;16.80;99.90;;;;;;5014448;28;20059;-68
2021/06/06 05:45:37;;;;;;;83.78;43.47;;;16.90;99.90;;;;;;5009388;28;20581;-68
2021/06/06 05:48:06;;;;;;;81.38;41.25;;;16.90;99.90;;;;;;5009572;28;20505;-68
2021/06/06 05:50:36;;;;;;;77.70;40.83;;;16.80;99.90;;;;;;5009307;28;20069;-68
2021/06/06 05:53:03;;;;;;;;;;;16.70;99.90;;;;;;5011954;28;20638;-68
2021/06/06 05:55:31;;;;;;;80.38;41.20;;;16.70;99.90;;;;;;5005546;28;20003;-68
2021/06/06 05:57:58;;;;;;;83.28;40.53;;;16.70;99.90;;;;;;5009508;28;20125;-68
2021/06/06 06:00:37;;;;;;;79.57;40.10;;;16.70;99.90;;;;;;5008319;28;20072;-67
2021/06/06 06:03:05;;;;;;;85.10;42.72;;;16.70;99.90;;;;;;5006704;28;20137;-68
2021/06/06 06:05:33;;;;;;;78.53;39.92;;;16.70;99.90;;;;;;5010764;28;20121;-67
2021/06/06 06:08:23;;;;;;;86.72;42.00;;;16.70;99.90;;;;;;5008754;28;20049;-67
2021/06/06 06:10:51;;;;;;;77.57;40.17;;;16.80;99.90;;;;;;5003951;28;20503;-67
2021/06/06 06:13:21;;;;;;;81.55;41.50;;;16.80;99.90;;;;;;5009968;28;20132;-68
2021/06/06 06:15:48;;;;;;;82.07;40.72;;;16.90;99.90;;;;;;5008025;28;20088;-68
2021/06/06 06:18:16;;;;;;;81.85;40.97;;;16.90;99.90;;;;;;5004814;28;20393;-68
2021/06/06 06:20:43;;;;;;;83.95;40.72;;;17.00;99.90;;;;;;5009696;28;20365;-68
2021/06/06 06:23:11;;;;;;;78.15;40.25;;;17.00;99.90;;;;;;5008659;28;20073;-68
2021/06/06 06:25:38;;;;;;;79.07;39.80;;;17.00;99.90;;;;;;5007840;28;20125;-68
2021/06/06 06:28:05;;;;;;;81.53;40.75;;;17.00;99.90;;;;;;5006817;28;20100;-68
2021/06/06 06:30:35;;;;;;;84.85;41.03;;;17.10;99.90;;;;;;5008211;28;20073;-69
2021/06/06 06:33:03;;;;;;;77.18;40.45;;;17.00;99.90;;;;;;5006573;28;20042;-69
2021/06/06 06:35:30;;;;;;;71.95;39.65;;;17.00;99.90;;;;;;5010533;28;20377;-69
2021/06/06 06:37:57;;;;;;;76.60;37.35;;;17.00;99.90;;;;;;5007435;28;20124;-69
2021/06/06 06:40:25;;;;;;;74.00;36.67;;;17.00;99.90;;;;;;5003801;28;20049;-69
2021/06/06 06:42:54;;;;;;;69.55;37.17;;;17.20;99.90;;;;;;5008420;28;20131;-69
2021/06/06 06:45:28;;;;;;;77.47;37.93;;;17.10;99.90;;;;;;5009592;28;20480;-68
2021/06/06 06:48:10;;;;;;;74.05;38.22;;;17.10;99.90;;;;;;5003998;28;20303;-69
2021/06/06 06:50:38;;;;;;;74.07;36.15;;;17.30;99.90;;;;;;5008149;28;20133;-68
2021/06/06 06:53:06;;;;;;;71.43;35.85;;;17.20;99.90;;;;;;5008653;28;20128;-69
2021/06/06 06:55:34;;;;;;;78.88;36.45;;;17.40;99.90;;;;;;5009608;28;20081;-69
2021/06/06 06:58:03;;;;;;;73.18;35.70;;;17.50;99.90;;;;;;5007420;28;20050;-69
2021/06/06 07:00:35;;;;;;;66.50;34.90;;;17.60;99.90;;;;;;5009896;28;20081;-68
2021/06/06 07:03:05;;;;;;;66.28;35.35;;;17.60;99.90;;;;;;5004779;28;20145;-68
2021/06/06 07:05:32;;;;;;;64.68;33.50;;;17.60;99.90;;;;;;5009329;28;20133;-69
2021/06/06 07:08:00;;;;;;;59.50;33.20;;;17.60;99.90;;;;;;5008620;28;20042;-68
2021/06/06 07:10:32;;;;;;;59.47;32.60;;;17.60;99.90;;;;;;5013249;28;20512;-68
2021/06/06 07:12:59;;;;;;;56.83;33.05;;;17.70;99.90;;;;;;5009716;28;20081;-68
2021/06/06 07:15:26;;;;;;;56.70;31.58;;;17.80;99.90;;;;;;5008035;28;20084;-69
2021/06/06 07:17:53;;;;;;;61.10;31.15;;;18.00;99.90;;;;;;5010031;28;20132;-68
2021/06/06 07:20:28;;;;;;;57.70;31.75;;;18.10;99.90;;;;;;5007190;28;20053;-69
2021/06/06 07:22:56;;;;;;;63.40;31.85;;;18.20;99.90;;;;;;5009605;28;20454;-69
2021/06/06 07:25:24;;;;;;;61.10;31.63;;;18.10;99.90;;;;;;5006914;28;20657;-70
2021/06/06 07:27:52;;;;;;;57.25;30.55;;;17.90;99.90;;;;;;5007837;28;20481;-68
2021/06/06 07:30:29;;;;;;;59.08;30.65;;;17.80;99.90;;;;;;5000839;28;20081;-69
2021/06/06 07:32:57;;;;;;;55.28;30.30;;;17.80;99.90;;;;;;5002325;28;20073;-68
2021/06/06 07:35:29;;;;;;;59.33;31.52;;;17.90;99.90;;;;;;5005471;28;20141;-69
2021/06/06 07:37:57;;;;;;;54.15;30.75;;;17.90;99.90;;;;;;5007576;28;20069;-68
2021/06/06 07:40:29;;;;;;;58.67;29.67;;;17.90;99.90;;;;;;5005326;28;20501;-68
2021/06/06 07:42:56;;;;;;;52.28;29.25;;;17.90;99.90;;;;;;5005719;28;20506;-69
2021/06/06 07:45:24;;;;;;;57.20;29.05;;;17.90;99.90;;;;;;5007180;28;20041;-68
2021/06/06 07:47:51;;;;;;;52.28;28.40;;;17.90;99.90;;;;;;5004530;28;20089;-68
2021/06/06 07:50:22;;;;;;;52.30;28.45;;;17.90;99.90;;;;;;5004332;28;20501;-69
2021/06/06 07:52:49;;;;;;;43.50;27.42;;;18.00;99.90;;;;;;5007981;28;20060;-69
2021/06/06 07:55:20;;;;;;;55.88;29.10;;;18.10;99.90;;;;;;5003726;28;20081;-69
2021/06/06 07:57:47;;;;;;;50.25;26.98;;;18.30;99.90;;;;;;5002749;28;20537;-69
2021/06/06 08:00:21;;;;;;;49.88;27.35;;;18.20;99.90;;;;;;5010177;28;20074;-69
2021/06/06 08:02:48;;;;;;;43.75;24.92;;;18.20;99.90;;;;;;5002722;28;20133;-68
2021/06/06 08:05:16;;;;;;;40.45;24.05;;;18.40;99.90;;;;;;5005978;28;20048;-68
2021/06/06 08:07:43;;;;;;;44.47;26.17;;;18.40;99.90;;;;;;5007701;28;20073;-69
2021/06/06 08:10:12;;;;;;;44.10;24.98;;;18.40;99.90;;;;;;5012441;28;20165;-68
2021/06/06 08:12:39;;;;;;;53.40;23.95;;;18.40;99.90;;;;;;5007535;28;20769;-67
2021/06/06 08:15:08;;;;;;;41.88;23.33;;;18.50;99.90;;;;;;5011886;28;20045;-69
2021/06/06 08:17:35;;;;;;;37.63;22.55;;;18.50;99.90;;;;;;5010500;28;20046;-69
2021/06/06 08:20:06;;;;;;;35.47;21.10;;;18.60;99.90;;;;;;5009862;28;20049;-69
2021/06/06 08:22:33;;;;;;;36.30;21.67;;;18.70;99.90;;;;;;5009176;28;20053;-68
2021/06/06 08:24:59;;;;;;;33.55;20.30;;;18.90;99.90;;;;;;5009609;28;20096;-68
2021/06/06 08:27:26;;;;;;;29.85;18.35;;;19.00;99.90;;;;;;5040742;28;20485;-70
2021/06/06 08:29:53;;;;;;;33.35;19.60;;;19.20;99.90;;;;;;5024553;28;20096;-70
2021/06/06 08:32:20;;;;;;;30.30;18.50;;;19.20;99.90;;;;;;5006022;28;20141;-68
2021/06/06 08:34:48;;;;;;;31.58;18.85;;;19.30;99.90;;;;;;5010198;28;20215;-70
2021/06/06 08:37:15;;;;;;;28.23;17.35;;;19.30;99.90;;;;;;5011462;28;20085;-68
2021/06/06 08:39:42;;;;;;;28.75;17.55;;;19.30;99.90;;;;;;5008732;28;20141;-69
2021/06/06 08:42:22;;;;;;;28.52;17.17;;;19.20;99.90;;;;;;5010804;28;20129;-71
2021/06/06 08:45:31;;;;;;;27.13;15.60;;;19.20;99.90;;;;;;5010671;28;20129;-71
2021/06/06 08:48:01;;;;;;;24.58;15.88;;;19.20;99.90;;;;;;5009767;28;20041;-70
2021/06/06 08:50:41;;;;;;;30.42;17.00;;;19.20;99.90;;;;;;5008396;28;20042;-69
2021/06/06 08:53:30;;;;;;;27.33;17.15;;;19.10;99.90;;;;;;5013311;28;20496;-70
2021/06/06 08:56:03;;;;;;;26.08;16.52;;;19.20;99.90;;;;;;5010047;28;20436;-69
2021/06/06 08:58:44;;;;;;;28.30;16.35;;;19.20;99.90;;;;;;5008119;28;20119;-70
2021/06/06 09:01:17;;;;;;;27.10;16.30;;;19.50;99.90;;;;;;5011416;28;20050;-68
2021/06/06 09:03:44;;;;;;;82.72;44.78;;;19.40;99.90;;;;;;5009409;28;20353;-67
2021/06/06 09:06:49;;;;;;;38.85;22.63;;;19.30;99.90;;;;;;5009687;28;20402;-70
2021/06/06 09:09:26;;;;;;;28.15;16.58;;;19.30;99.90;;;;;;5006108;28;20544;-68
2021/06/06 09:12:02;;;;;;;30.95;16.27;;;19.20;99.90;;;;;;5015054;28;20074;-66
2021/06/06 09:14:30;;;;;;;41.70;21.80;;;19.20;99.90;;;;;;5010781;28;20053;-66
2021/06/06 09:17:07;;;;;;;32.25;18.55;;;19.40;99.90;;;;;;5008985;28;20661;-68
2021/06/06 09:19:40;;;;;;;35.60;21.42;;;19.50;99.90;;;;;;5007410;28;20050;-69
2021/06/06 09:22:08;;;;;;;23.67;14.85;;;19.70;99.90;;;;;;5001066;28;20042;-68
2021/06/06 09:24:45;;;;;;;23.58;15.10;;;19.60;99.90;;;;;;5003223;28;20095;-68
2021/06/06 09:27:15;;;;;;;27.20;16.70;;;19.60;99.90;;;;;;5004472;28;20094;-67
2021/06/06 09:29:44;;;;;;;31.98;20.08;;;19.60;99.90;;;;;;5015190;28;20902;-67
2021/06/06 09:32:19;;;;;;;21.63;15.25;;;19.60;99.90;;;;;;4992248;28;20137;-69
2021/06/06 09:35:26;;;;;;;23.40;15.18;;;19.50;99.90;;;;;;4992627;28;20137;-67
2021/06/06 09:38:21;;;;;;;33.90;17.90;;;19.50;99.90;;;;;;4993114;28;20050;-67
2021/06/06 09:40:51;;;;;;;25.38;15.48;;;19.60;99.90;;;;;;4993141;28;20070;-68
2021/06/06 09:43:31;;;;;;;25.67;16.40;;;19.70;99.90;;;;;;4991938;28;20146;-67
2021/06/06 09:46:15;;;;;;;;;;;19.90;99.90;;;;;;4993692;28;20046;-67
2021/06/06 09:48:44;;;;;;;26.60;16.42;;;19.90;99.90;;;;;;4991240;28;19930;-67
2021/06/06 09:51:31;;;;;;;29.67;16.25;;;19.90;99.90;;;;;;4994137;28;20561;-67
2021/06/06 09:54:14;;;;;;;24.58;15.75;;;19.80;99.90;;;;;;4993033;28;20145;-68
2021/06/06 09:56:48;;;;;;;25.02;15.57;;;20.20;99.90;;;;;;4993883;28;20108;-69
2021/06/06 09:59:23;;;;;;;23.00;14.80;;;20.20;99.90;;;;;;4992421;28;20144;-67
2021/06/06 10:02:03;;;;;;;23.55;14.20;;;20.40;99.90;;;;;;4993676;28;20054;-68
2021/06/06 10:04:34;;;;;;;23.10;15.15;;;20.50;99.90;;;;;;4993976;28;20131;-69
2021/06/06 10:07:27;;;;;;;23.38;15.25;;;20.90;99.50;;;;;;4994283;28;20127;-69
2021/06/06 10:09:56;;;;;;;27.73;14.73;;;20.90;98.10;;;;;;4993102;28;20084;-67
2021/06/06 10:12:34;;;;;;;25.20;15.15;;;20.80;98.70;;;;;;4993729;28;20100;-66
2021/06/06 10:15:12;;;;;;;25.88;16.83;;;20.70;98.80;;;;;;4992786;28;20528;-67
2021/06/06 10:17:43;;;;;;;24.05;14.57;;;20.80;98.70;;;;;;4993719;28;20085;-69
2021/06/06 10:20:16;;;;;;;22.00;14.18;;;20.90;98.00;;;;;;4991499;28;20169;-67
2021/06/06 10:22:50;;;;;;;20.83;14.60;;;20.90;98.70;;;;;;4993163;28;20135;-67
2021/06/06 10:25:26;;;;;;;29.27;15.73;;;20.70;97.70;;;;;;4992248;28;20073;-68
2021/06/06 10:27:57;;;;;;;23.35;15.27;;;20.60;98.80;;;;;;4993804;28;20619;-67
2021/06/06 10:30:31;;;;;;;27.48;16.08;;;20.50;98.70;;;;;;4991103;28;20670;-68
2021/06/06 10:33:12;;;;;;;23.38;14.60;;;20.70;99.00;;;;;;4991451;28;20053;-68
2021/06/06 10:35:39;;;;;;;36.88;16.13;;;21.00;98.10;;;;;;4990659;28;20989;-66
2021/06/06 10:38:06;;;;;;;20.88;13.52;;;21.10;97.70;;;;;;4992140;28;20141;-68
2021/06/06 10:40:44;;;;;;;22.92;13.82;;;21.00;97.20;;;;;;4992375;28;20136;-68
2021/06/06 10:43:18;;;;;;;23.48;14.15;;;21.00;97.00;;;;;;4992772;28;20552;-68
2021/06/06 10:46:00;;;;;;;20.40;13.45;;;21.00;96.50;;;;;;4991438;28;20050;-69
2021/06/06 10:48:31;;;;;;;20.77;13.32;;;21.10;96.10;;;;;;4988608;28;20050;-69
2021/06/06 10:51:12;;;;;;;23.08;14.15;;;21.00;96.20;;;;;;4991902;28;20132;-67
2021/06/06 10:53:50;;;;;;;22.92;13.30;;;20.80;96.70;;;;;;4992170;28;20064;-67
2021/06/06 10:56:47;;;;;;;26.25;14.77;;;21.20;96.30;;;;;;4990982;28;20138;-67
2021/06/06 10:59:14;;;;;;;24.38;15.07;;;21.10;95.50;;;;;;4991703;28;20136;-68
2021/06/06 11:01:44;;;;;;;28.95;16.60;;;20.90;96.40;;;;;;4990779;28;20132;-67
2021/06/06 11:04:31;;;;;;;26.80;16.92;;;20.80;96.70;;;;;;4991729;28;20081;-66
2021/06/06 11:07:15;;;;;;;18.48;11.95;;;20.90;96.50;;;;;;4992782;28;20049;-69
2021/06/06 11:09:59;;;;;;;18.63;12.50;;;21.20;95.80;;;;;;4990691;28;20133;-68
2021/06/06 11:12:33;;;;;;;17.30;12.02;;;21.60;94.80;;;;;;5011816;28;20929;-68
2021/06/06 11:15:04;;;;;;;17.85;11.43;;;21.70;94.70;;;;;;4990862;28;20081;-67
2021/06/06 11:17:39;;;;;;;17.77;11.13;;;21.80;94.00;;;;;;4991191;28;20497;-67
2021/06/06 11:20:25;;;;;;;17.33;11.27;;;21.70;93.30;;;;;;4991935;28;20133;-67
2021/06/06 11:22:56;;;;;;;20.05;10.75;;;21.70;93.00;;;;;;4990715;28;20064;-67
2021/06/06 11:25:36;;;;;;;15.57;10.65;;;21.60;93.60;;;;;;4991705;28;20493;-67
2021/06/06 11:28:08;;;;;;;16.30;9.90;;;21.80;93.50;;;;;;4991676;28;20663;-67
2021/06/06 11:30:40;;;;;;;18.33;10.95;;;21.80;93.30;;;;;;4991840;28;20384;-67
2021/06/06 11:33:11;;;;;;;16.15;11.15;;;21.80;92.90;;;;;;4991044;28;20133;-67
2021/06/06 11:35:38;;;;;;;18.95;11.48;;;22.00;92.40;;;;;;4991060;28;20580;-68
2021/06/06 11:38:16;;;;;;;15.35;9.70;;;21.90;91.60;;;;;;4990106;28;20077;-67
2021/06/06 11:40:46;;;;;;;17.38;11.32;;;22.20;91.70;;;;;;4994265;28;20404;-68
2021/06/06 11:43:20;;;;;;;13.80;9.80;;;22.10;91.40;;;;;;4998843;28;20161;-67
2021/06/06 11:45:52;;;;;;;17.58;10.82;;;22.20;92.10;;;;;;4997152;28;20053;-67
2021/06/06 11:48:37;;;;;;;17.95;11.02;;;22.10;90.90;;;;;;4997987;28;20046;-68
2021/06/06 11:51:22;;;;;;;15.77;11.18;;;22.00;92.00;;;;;;4997875;28;20100;-67
2021/06/06 11:53:49;;;;;;;17.73;11.35;;;21.90;91.30;;;;;;4999531;28;20078;-68
2021/06/06 11:56:34;;;;;;;17.88;11.68;;;21.80;91.50;;;;;;4996953;28;20157;-68
2021/06/06 11:59:25;;;;;;;21.13;12.18;;;21.60;91.80;;;;;;4997264;28;20144;-68
2021/06/06 12:01:59;;;;;;;15.77;10.77;;;21.30;92.40;;;;;;4996042;28;21009;-68
2021/06/06 12:04:35;;;;;;;17.23;11.13;;;21.50;91.90;;;;;;4994720;28;20449;-67
2021/06/06 12:07:26;;;;;;;19.17;11.77;;;21.70;91.60;;;;;;4996183;28;20733;-67
2021/06/06 12:09:55;;;;;;;17.10;11.95;;;22.00;91.10;;;;;;4996548;28;20128;-66
2021/06/06 12:12:30;;;;;;;17.50;11.18;;;22.20;90.50;;;;;;4996665;28;20659;-66
2021/06/06 12:15:18;;;;;;;76.25;44.30;;;21.80;91.20;;;;;;4999315;28;20812;-66
2021/06/06 12:17:47;;;;;;;30.05;17.52;;;21.80;91.90;;;;;;4996849;28;20113;-68
2021/06/06 12:20:21;;;;;;;45.92;24.85;;;21.80;91.00;;;;;;4998512;28;20539;-68
2021/06/06 12:22:48;;;;;;;19.52;12.75;;;22.10;90.70;;;;;;4996893;28;20139;-69
2021/06/06 12:25:14;;;;;;;23.85;14.95;;;22.10;90.30;;;;;;4997534;28;20120;-68
2021/06/06 12:27:45;;;;;;;24.13;12.95;;;22.30;89.60;;;;;;4996730;28;20050;-66
2021/06/06 12:30:17;;;;;;;19.42;12.23;;;22.30;89.10;;;;;;4998731;28;20160;-65
2021/06/06 12:33:11;;;;;;;29.65;17.40;;;22.70;88.10;;;;;;5003184;28;20073;-65
2021/06/06 12:36:03;;;;;;;17.52;11.63;;;22.70;87.30;;;;;;5006631;28;20054;-66
2021/06/06 12:38:30;;;;;;;22.45;12.23;;;22.60;86.00;;;;;;5008479;28;20060;-66
2021/06/06 12:41:00;;;;;;;22.83;14.63;;;22.30;86.60;;;;;;5006714;28;20145;-71
2021/06/06 12:43:29;;;;;;;77.07;42.88;;;22.20;88.50;;;;;;5006753;28;20165;-65
2021/06/06 12:46:03;;;;;;;65.00;33.43;;;22.40;89.30;;;;;;5005609;28;20064;-66
2021/06/06 12:48:34;;;;;;;19.00;12.75;;;22.00;89.60;;;;;;5010600;28;20054;-69
2021/06/06 12:51:14;;;;;;;19.80;11.23;;;21.80;88.70;;;;;;5015421;28;20549;-69
2021/06/06 12:53:43;;;;;;;18.23;12.00;;;21.80;89.10;;;;;;5012781;28;20100;-69
2021/06/06 12:56:26;;;;;;;16.63;11.60;;;21.60;89.40;;;;;;5003260;28;20125;-69